Time;durP1;ratioP1;P1;durP2;ratioP2;P2;SDS_P1;SDS_P2;PMS_P1;PMS_P2;Temp;Humidity;BMP_temperature;BMP_pressure;BME280_temperature;BME280_humidity;BME280_pressure;Samples;Min_cycle;Max_cycle;Signal;HPM_P1;HPM_P2
2022/09/19 00:01:47;;;;;;;11.13;2.42;;;11.70;99.90;;;;;;5014266;28;20033;-68
2022/09/19 00:04:15;;;;;;;17.38;2.10;;;11.90;99.90;;;;;;5014358;28;20429;-69
2022/09/19 00:06:43;;;;;;;12.65;2.80;;;12.10;99.90;;;;;;5014381;28;20470;-69
2022/09/19 00:09:12;;;;;;;17.25;2.78;;;11.90;99.90;;;;;;5014346;28;20026;-68
2022/09/19 00:11:40;;;;;;;13.48;2.90;;;12.10;99.90;;;;;;5014504;28;20038;-69
2022/09/19 00:14:07;;;;;;;17.73;3.20;;;12.00;99.90;;;;;;5014580;28;20034;-69
2022/09/19 00:16:36;;;;;;;13.50;2.83;;;11.80;99.90;;;;;;5014161;28;20036;-68
2022/09/19 00:19:04;;;;;;;15.95;3.60;;;12.00;99.90;;;;;;5014539;28;20049;-69
2022/09/19 00:21:34;;;;;;;12.40;3.30;;;11.80;99.90;;;;;;5014451;28;20080;-69
2022/09/19 00:26:45;;;;;;;10.27;2.50;;;11.60;99.90;;;;;;5013854;28;20033;-69
2022/09/19 00:29:12;;;;;;;19.83;2.95;;;12.00;99.90;;;;;;5013898;28;20025;-69
2022/09/19 00:31:38;;;;;;;11.20;3.05;;;12.20;99.90;;;;;;5013396;28;20121;-69
2022/09/19 00:34:09;;;;;;;13.60;2.85;;;11.80;99.90;;;;;;5013965;28;20106;-69
2022/09/19 00:36:36;;;;;;;13.13;2.27;;;11.70;99.90;;;;;;5013807;28;20478;-69
2022/09/19 00:39:03;;;;;;;12.48;2.38;;;11.60;99.90;;;;;;5014041;28;20042;-69
2022/09/19 00:41:29;;;;;;;15.98;2.83;;;11.40;99.90;;;;;;5013919;28;20541;-69
2022/09/19 00:43:59;;;;;;;11.63;2.53;;;11.90;99.90;;;;;;5014094;28;20079;-69
2022/09/19 00:46:27;;;;;;;20.05;2.78;;;11.70;99.90;;;;;;5012228;28;20022;-69
2022/09/19 00:49:11;;;;;;;18.38;2.47;;;11.50;99.90;;;;;;5013940;28;20018;-68
2022/09/19 00:51:48;;;;;;;15.10;3.25;;;11.60;99.90;;;;;;5012592;28;20029;-69
2022/09/19 00:54:28;;;;;;;13.35;3.00;;;11.70;99.90;;;;;;5013956;28;20037;-68
2022/09/19 00:56:57;;;;;;;13.73;3.65;;;11.60;99.90;;;;;;5012062;28;20025;-69
2022/09/19 00:59:26;;;;;;;16.73;2.60;;;11.40;99.90;;;;;;5012480;28;20029;-68
2022/09/19 01:01:54;;;;;;;11.32;2.55;;;11.50;99.90;;;;;;5012494;28;20030;-69
2022/09/19 01:04:23;;;;;;;13.73;2.60;;;11.50;99.90;;;;;;5012476;28;20497;-69
2022/09/19 01:07:24;;;;;;;10.25;2.78;;;11.20;99.90;;;;;;5012946;28;20033;-69
2022/09/19 01:10:15;;;;;;;10.77;2.47;;;11.30;99.90;;;;;;5012480;28;20034;-68
2022/09/19 01:12:51;;;;;;;15.30;3.17;;;11.10;99.90;;;;;;5013279;28;20054;-68
2022/09/19 01:15:42;;;;;;;15.35;2.80;;;10.90;99.90;;;;;;5012085;28;20025;-68
2022/09/19 01:18:09;;;;;;;12.52;2.67;;;10.80;99.90;;;;;;5012030;28;20042;-69
2022/09/19 01:21:37;;;;;;;13.48;2.53;;;10.70;99.90;;;;;;5013719;28;20072;-69
2022/09/19 01:23:48;;;;;;;12.55;2.38;;;11.00;99.90;;;;;;5011592;28;20426;-69
2022/09/19 01:26:20;;;;;;;17.13;2.75;;;11.00;99.90;;;;;;5011855;28;20145;-69
2022/09/19 01:28:49;;;;;;;13.27;3.47;;;11.10;99.90;;;;;;5013404;28;20108;-69
2022/09/19 01:31:22;;;;;;;9.32;2.20;;;11.30;99.90;;;;;;5012018;28;20061;-68
2022/09/19 01:34:09;;;;;;;14.80;3.03;;;11.50;99.90;;;;;;5013081;28;20080;-69
2022/09/19 01:36:52;;;;;;;15.18;2.65;;;11.60;99.90;;;;;;5013132;28;20061;-68
2022/09/19 01:39:23;;;;;;;19.88;2.55;;;11.60;99.90;;;;;;5011576;28;20117;-68
2022/09/19 01:41:54;;;;;;;14.07;2.20;;;11.80;99.90;;;;;;5011884;28;20030;-69
2022/09/19 01:44:23;;;;;;;11.98;2.75;;;11.80;99.90;;;;;;5011357;28;20034;-68
2022/09/19 01:46:55;;;;;;;24.97;3.17;;;11.60;99.90;;;;;;5011843;28;20025;-69
2022/09/19 01:49:37;;;;;;;16.35;2.38;;;11.40;99.90;;;;;;5011368;28;20288;-68
2022/09/19 01:52:21;;;;;;;12.98;2.50;;;11.20;99.90;;;;;;5011869;28;20058;-69
2022/09/19 01:55:33;;;;;;;17.40;2.17;;;11.10;99.90;;;;;;5011639;28;20099;-69
2022/09/19 01:58:16;;;;;;;20.27;3.03;;;11.10;99.90;;;;;;4984097;28;20510;-68
2022/09/19 02:00:53;;;;;;;10.13;2.25;;;11.10;99.90;;;;;;5011685;28;20040;-68
2022/09/19 02:03:44;;;;;;;14.63;2.60;;;11.00;99.90;;;;;;5012695;28;20030;-69
2022/09/19 02:06:45;;;;;;;12.63;2.40;;;10.90;99.90;;;;;;5011414;28;20058;-69
2022/09/19 02:09:27;;;;;;;12.98;2.17;;;11.20;99.90;;;;;;5001233;28;20494;-69
2022/09/19 02:11:56;;;;;;;15.95;2.83;;;11.10;99.90;;;;;;5011441;28;20116;-69
2022/09/19 02:14:27;;;;;;;21.00;2.33;;;10.80;99.90;;;;;;5011416;28;20037;-68
2022/09/19 02:17:09;;;;;;;12.57;2.22;;;10.90;99.90;;;;;;5011275;28;20033;-68
2022/09/19 02:19:56;;;;;;;18.17;2.53;;;11.10;99.90;;;;;;5012845;28;20037;-69
2022/09/19 02:22:32;;;;;;;13.77;2.60;;;11.40;99.90;;;;;;5011181;28;20022;-69
2022/09/19 02:25:05;;;;;;;18.88;2.72;;;11.50;99.90;;;;;;5011007;28;20109;-69
2022/09/19 02:27:50;;;;;;;;;;;11.70;99.90;;;;;;5011816;28;20390;-69
2022/09/19 02:30:20;;;;;;;14.93;2.33;;;11.50;99.90;;;;;;5015237;28;19921;-69
2022/09/19 02:32:47;;;;;;;10.95;2.20;;;11.60;99.90;;;;;;5015386;28;20425;-69
2022/09/19 02:35:18;;;;;;;9.23;2.20;;;11.70;99.90;;;;;;5016552;28;20037;-69
2022/09/19 02:37:48;;;;;;;14.82;2.30;;;11.80;99.90;;;;;;5016165;28;20033;-69
2022/09/19 02:40:57;;;;;;;13.55;1.90;;;11.90;99.90;;;;;;5027517;28;20501;-69
2022/09/19 02:43:36;;;;;;;12.30;3.20;;;11.60;99.90;;;;;;4998342;28;20124;-69
2022/09/19 02:46:11;;;;;;;9.55;2.10;;;11.90;99.90;;;;;;5036343;28;20064;-69
2022/09/19 02:48:41;;;;;;;10.30;2.80;;;11.80;99.90;;;;;;5034910;28;20112;-69
2022/09/19 02:51:12;;;;;;;10.85;2.05;;;11.60;99.90;;;;;;5035937;28;20060;-69
2022/09/19 02:53:46;;;;;;;18.85;2.90;;;11.60;99.90;;;;;;5034687;28;20029;-68
2022/09/19 02:56:20;;;;;;;16.48;2.60;;;11.60;99.90;;;;;;5018553;28;20025;-69
2022/09/19 02:58:56;;;;;;;15.35;2.58;;;11.60;99.90;;;;;;5034196;28;20095;-69
2022/09/19 03:01:33;;;;;;;7.30;1.90;;;11.40;99.90;;;;;;5034434;28;20237;-69
2022/09/19 03:04:13;;;;;;;15.02;2.47;;;11.50;99.90;;;;;;5034155;28;20037;-69
2022/09/19 03:07:06;;;;;;;10.02;2.35;;;11.60;99.90;;;;;;5034495;28;20024;-69
2022/09/19 03:09:32;;;;;;;21.40;3.22;;;11.60;99.90;;;;;;5017399;28;20529;-69
2022/09/19 03:12:18;;;;;;;16.02;2.63;;;11.70;99.90;;;;;;5034193;28;20041;-69
2022/09/19 03:14:46;;;;;;;13.20;2.33;;;11.70;99.90;;;;;;5033848;28;20161;-69
2022/09/19 03:17:18;;;;;;;11.35;2.88;;;11.60;99.90;;;;;;5034180;28;20025;-69
2022/09/19 03:19:47;;;;;;;12.15;2.05;;;11.30;99.90;;;;;;5033769;28;20053;-69
2022/09/19 03:22:15;;;;;;;17.08;1.98;;;11.20;99.90;;;;;;5033855;28;20075;-69
2022/09/19 03:24:42;;;;;;;9.35;2.42;;;11.00;99.90;;;;;;5033825;28;20037;-69
2022/09/19 03:27:08;;;;;;;15.00;2.28;;;11.10;99.90;;;;;;5035327;28;20021;-69
2022/09/19 03:29:36;;;;;;;10.10;2.40;;;10.90;99.90;;;;;;5033359;28;20452;-68
2022/09/19 03:32:03;;;;;;;13.40;2.80;;;11.00;99.90;;;;;;5034092;28;20022;-68
2022/09/19 03:34:32;;;;;;;14.60;2.53;;;11.10;99.90;;;;;;5033766;28;20029;-69
2022/09/19 03:37:00;;;;;;;9.65;2.33;;;11.10;99.90;;;;;;5033598;28;20037;-69
2022/09/19 03:39:29;;;;;;;19.60;3.50;;;11.20;99.90;;;;;;5032545;28;20033;-69
2022/09/19 03:41:55;;;;;;;19.48;2.72;;;11.00;99.90;;;;;;5034627;28;20390;-69
2022/09/19 03:44:21;;;;;;;18.10;3.20;;;11.10;99.90;;;;;;5033695;28;20033;-69
2022/09/19 03:46:48;;;;;;;18.00;2.55;;;11.10;99.90;;;;;;5033444;28;20108;-69
2022/09/19 03:49:15;;;;;;;21.80;2.55;;;11.10;99.90;;;;;;5033894;28;20108;-69
2022/09/19 03:51:42;;;;;;;8.82;2.33;;;10.90;99.90;;;;;;5033132;28;20030;-69
2022/09/19 03:54:09;;;;;;;14.57;2.60;;;10.60;99.90;;;;;;5033027;28;20040;-69
2022/09/19 03:56:40;;;;;;;16.67;2.42;;;10.40;99.90;;;;;;5032736;28;20025;-68
2022/09/19 03:59:07;;;;;;;17.77;3.40;;;10.30;99.90;;;;;;5033020;28;20401;-69
2022/09/19 04:01:35;;;;;;;15.10;3.50;;;10.50;99.90;;;;;;5033446;28;20033;-69
2022/09/19 04:04:01;;;;;;;10.88;2.83;;;10.70;99.90;;;;;;5033187;28;20474;-69
2022/09/19 04:06:27;;;;;;;14.30;2.65;;;10.70;99.90;;;;;;5032825;28;20027;-69
2022/09/19 04:08:53;;;;;;;18.83;2.42;;;10.60;99.90;;;;;;5033192;28;20064;-69
2022/09/19 04:11:20;;;;;;;21.33;2.83;;;10.70;99.90;;;;;;5033201;28;20021;-69
2022/09/19 04:13:49;;;;;;;10.85;3.15;;;10.70;99.90;;;;;;5032834;28;20026;-69
2022/09/19 04:16:17;;;;;;;10.70;2.20;;;10.60;99.90;;;;;;5033078;28;20075;-69
2022/09/19 04:18:47;;;;;;;11.13;3.03;;;10.60;99.90;;;;;;5032955;28;20404;-69
2022/09/19 04:21:25;;;;;;;9.02;3.20;;;10.60;99.90;;;;;;5032065;28;20105;-69
2022/09/19 04:24:26;;;;;;;13.27;2.85;;;10.40;99.90;;;;;;5032799;28;20075;-69
2022/09/19 04:27:06;;;;;;;10.05;2.67;;;10.20;99.90;;;;;;5017840;28;20100;-69
2022/09/19 04:29:33;;;;;;;11.85;2.38;;;10.30;99.90;;;;;;5032305;28;20753;-69
2022/09/19 04:32:02;;;;;;;20.17;2.78;;;10.30;99.90;;;;;;5032626;28;20132;-69
2022/09/19 04:34:29;;;;;;;14.27;3.00;;;10.50;99.90;;;;;;5032817;28;20025;-69
2022/09/19 04:37:01;;;;;;;11.80;3.42;;;10.70;99.90;;;;;;5032764;28;20428;-69
2022/09/19 04:39:28;;;;;;;15.68;3.22;;;10.80;99.90;;;;;;5032582;28;20038;-69
2022/09/19 04:41:53;;;;;;;19.58;2.53;;;10.80;99.90;;;;;;5032390;28;20029;-68
2022/09/19 04:44:21;;;;;;;21.73;3.60;;;10.90;99.90;;;;;;5032575;28;20069;-68
2022/09/19 04:46:55;;;;;;;16.73;2.95;;;10.80;99.90;;;;;;5032252;28;20045;-68
2022/09/19 04:49:21;;;;;;;14.73;3.03;;;10.80;99.90;;;;;;5033432;28;20420;-69
2022/09/19 04:51:47;;;;;;;7.30;2.17;;;10.80;99.90;;;;;;5015672;28;20025;-68
2022/09/19 04:54:17;;;;;;;18.50;4.20;;;10.60;99.90;;;;;;4989001;28;20120;-69
2022/09/19 04:56:46;;;;;;;8.25;2.25;;;10.70;99.90;;;;;;5031922;28;20390;-69
2022/09/19 04:59:12;;;;;;;16.17;3.00;;;10.80;99.90;;;;;;5031991;28;20120;-69
2022/09/19 05:01:39;;;;;;;10.05;2.45;;;10.80;99.90;;;;;;5032281;28;20026;-69
2022/09/19 05:04:05;;;;;;;11.02;2.25;;;10.90;99.90;;;;;;5031869;28;20025;-69
2022/09/19 05:06:31;;;;;;;21.08;2.70;;;10.80;99.90;;;;;;5031887;28;20176;-68
2022/09/19 05:08:57;;;;;;;13.57;2.30;;;10.70;99.90;;;;;;5031942;28;20522;-69
2022/09/19 05:11:33;;;;;;;15.52;3.85;;;10.90;99.90;;;;;;5032340;28;20032;-69
2022/09/19 05:14:01;;;;;;;15.43;2.38;;;11.00;99.90;;;;;;5031725;28;20025;-68
2022/09/19 05:16:29;;;;;;;14.68;2.90;;;11.00;99.90;;;;;;5032396;28;20037;-69
2022/09/19 05:18:59;;;;;;;19.63;3.67;;;11.10;99.90;;;;;;5031603;28;20042;-69
2022/09/19 05:21:25;;;;;;;13.82;2.83;;;10.80;99.90;;;;;;5005763;28;20385;-69
2022/09/19 05:23:51;;;;;;;9.90;2.90;;;10.70;99.90;;;;;;5031803;28;20500;-69
2022/09/19 05:26:17;;;;;;;13.60;3.47;;;10.80;99.90;;;;;;5033349;28;20017;-69
2022/09/19 05:28:47;;;;;;;9.85;2.33;;;10.90;99.90;;;;;;5031274;28;20040;-68
2022/09/19 05:31:18;;;;;;;12.63;2.50;;;10.70;99.90;;;;;;5031846;28;20521;-68
2022/09/19 05:33:49;;;;;;;13.00;2.60;;;10.80;99.90;;;;;;5031338;28;20034;-69
2022/09/19 05:36:21;;;;;;;17.38;4.22;;;11.00;99.90;;;;;;5031579;28;20553;-69
2022/09/19 05:39:02;;;;;;;19.70;2.60;;;11.00;99.90;;;;;;5031908;28;20041;-69
2022/09/19 05:41:39;;;;;;;16.23;3.33;;;11.20;99.90;;;;;;5031384;28;20032;-69
2022/09/19 05:44:16;;;;;;;15.98;2.58;;;11.20;99.90;;;;;;5032946;28;20037;-69
2022/09/19 05:46:45;;;;;;;12.98;3.33;;;11.30;99.90;;;;;;5031129;28;20026;-69
2022/09/19 05:49:10;;;;;;;19.35;2.65;;;11.50;99.90;;;;;;5032913;28;20096;-69
2022/09/19 05:51:36;;;;;;;15.88;2.72;;;11.60;99.90;;;;;;5032971;28;20124;-68
2022/09/19 05:54:03;;;;;;;14.43;2.97;;;11.70;99.90;;;;;;5031214;28;20112;-68
2022/09/19 05:56:40;;;;;;;13.80;2.72;;;11.80;99.90;;;;;;5031173;28;20040;-69
2022/09/19 05:59:08;;;;;;;15.15;2.85;;;11.70;99.90;;;;;;5031196;28;20037;-69
2022/09/19 06:01:37;;;;;;;16.33;3.92;;;11.70;99.90;;;;;;5030932;28;20025;-69
2022/09/19 06:04:05;;;;;;;10.35;3.05;;;11.60;99.90;;;;;;5030049;28;20022;-69
2022/09/19 06:06:36;;;;;;;13.98;2.67;;;11.70;99.90;;;;;;5031189;28;20087;-69
2022/09/19 06:09:03;;;;;;;18.98;3.03;;;11.70;99.90;;;;;;5030995;28;20025;-69
2022/09/19 06:11:33;;;;;;;12.60;2.70;;;11.60;99.90;;;;;;5030923;28;20032;-68
2022/09/19 06:14:14;;;;;;;14.98;3.35;;;11.30;99.90;;;;;;5032021;28;20484;-68
2022/09/19 06:16:42;;;;;;;16.63;3.80;;;11.50;99.90;;;;;;5030921;28;20025;-67
2022/09/19 06:19:26;;;;;;;11.63;3.38;;;11.40;99.90;;;;;;5032067;28;20068;-67
2022/09/19 06:22:15;;;;;;;20.17;2.75;;;11.60;99.90;;;;;;5026577;28;20091;-68
2022/09/19 06:24:42;;;;;;;10.57;2.67;;;11.80;99.90;;;;;;5031053;28;20029;-67
2022/09/19 06:27:10;;;;;;;17.42;2.97;;;11.70;99.90;;;;;;5031128;28;20029;-68
2022/09/19 06:29:39;;;;;;;15.68;3.45;;;11.30;99.90;;;;;;5030853;28;20442;-68
2022/09/19 06:32:18;;;;;;;25.83;3.78;;;11.30;99.90;;;;;;5030842;28;20034;-68
2022/09/19 06:34:45;;;;;;;25.95;4.68;;;11.20;99.90;;;;;;5031037;28;20363;-67
2022/09/19 06:37:12;;;;;;;18.67;4.30;;;11.20;99.90;;;;;;5024492;28;20019;-67
2022/09/19 06:39:38;;;;;;;18.25;4.25;;;11.20;99.90;;;;;;5004467;28;20034;-68
2022/09/19 06:42:22;;;;;;;18.73;3.72;;;11.30;99.90;;;;;;5002439;28;20029;-68
2022/09/19 06:45:11;;;;;;;13.48;3.67;;;11.40;99.90;;;;;;4998180;28;20040;-68
2022/09/19 06:47:59;;;;;;;25.95;3.65;;;11.80;99.90;;;;;;5009316;28;20037;-68
2022/09/19 06:50:58;;;;;;;19.38;3.80;;;12.10;99.90;;;;;;4983915;28;20043;-68
2022/09/19 06:53:24;;;;;;;16.85;3.30;;;12.50;99.90;;;;;;4998981;28;20030;-70
2022/09/19 06:55:56;;;;;;;11.80;2.30;;;13.00;99.90;;;;;;5009650;28;20470;-68
2022/09/19 06:58:24;;;;;;;14.40;4.00;;;12.80;99.90;;;;;;5011017;28;20415;-69
2022/09/19 07:00:51;;;;;;;16.02;3.55;;;12.50;99.90;;;;;;5009313;28;20014;-68
2022/09/19 07:03:18;;;;;;;21.35;3.08;;;12.50;99.90;;;;;;5009455;28;20061;-68
2022/09/19 07:05:51;;;;;;;;;;;12.60;99.90;;;;;;5005318;28;20023;-69
2022/09/19 07:08:22;;;;;;;24.92;3.55;;;12.80;99.90;;;;;;5009595;28;19918;-68
2022/09/19 07:10:49;;;;;;;17.42;2.88;;;12.80;99.90;;;;;;5010883;28;20021;-68
2022/09/19 07:13:16;;;;;;;21.45;2.95;;;12.80;99.90;;;;;;5011327;28;20037;-67
2022/09/19 07:15:43;;;;;;;18.17;3.25;;;12.90;99.90;;;;;;5012323;28;20022;-68
2022/09/19 07:18:11;;;;;;;13.77;2.65;;;12.90;99.90;;;;;;5007159;28;20030;-69
2022/09/19 07:20:38;;;;;;;19.80;3.10;;;13.10;99.90;;;;;;5003380;28;20113;-69
2022/09/19 07:23:14;;;;;;;15.30;3.13;;;13.30;99.90;;;;;;5009079;28;20027;-69
2022/09/19 07:25:55;;;;;;;21.15;3.65;;;13.40;99.90;;;;;;5008359;28;20026;-68
2022/09/19 07:28:22;;;;;;;18.15;3.13;;;13.40;99.90;;;;;;5005659;28;20033;-68
2022/09/19 07:30:50;;;;;;;18.13;2.70;;;13.40;99.90;;;;;;4988485;28;20262;-68
2022/09/19 07:33:20;;;;;;;15.15;3.03;;;13.60;99.90;;;;;;5005961;28;20038;-68
2022/09/19 07:35:46;;;;;;;17.58;4.43;;;13.50;99.90;;;;;;5005530;28;20022;-68
2022/09/19 07:38:16;;;;;;;17.70;3.38;;;13.70;99.90;;;;;;5004279;28;20037;-69
2022/09/19 07:41:01;;;;;;;20.80;2.83;;;13.60;99.90;;;;;;5001357;28;20022;-68
2022/09/19 07:43:35;;;;;;;20.52;2.88;;;13.60;99.90;;;;;;5006003;28;20125;-68
2022/09/19 07:46:19;;;;;;;20.85;3.63;;;13.50;99.90;;;;;;5013160;28;20044;-67
2022/09/19 07:49:00;;;;;;;17.88;3.95;;;13.50;99.90;;;;;;5016568;28;20049;-68
2022/09/19 07:51:47;;;;;;;14.55;2.30;;;13.80;99.90;;;;;;4989657;28;20438;-69
2022/09/19 07:54:13;;;;;;;10.25;2.35;;;14.00;99.90;;;;;;5013247;28;20022;-68
2022/09/19 07:56:40;;;;;;;14.68;2.75;;;14.20;99.90;;;;;;5007235;28;20478;-68
2022/09/19 07:59:06;;;;;;;14.35;2.78;;;14.20;99.90;;;;;;5006092;28;20045;-69
2022/09/19 08:01:44;;;;;;;17.05;2.63;;;14.50;99.90;;;;;;5006904;28;20032;-68
2022/09/19 08:04:14;;;;;;;8.80;2.53;;;14.10;99.90;;;;;;5013182;28;20490;-69
2022/09/19 08:07:00;;;;;;;18.20;2.90;;;14.00;99.90;;;;;;5023941;28;20083;-66
2022/09/19 08:09:26;;;;;;;12.73;1.95;;;14.00;99.90;;;;;;5016326;28;20030;-67
2022/09/19 08:12:14;;;;;;;12.27;2.00;;;14.60;99.90;;;;;;5015145;28;20030;-69
2022/09/19 08:14:46;;;;;;;17.27;2.47;;;14.50;99.90;;;;;;5010504;28;20449;-69
2022/09/19 08:17:12;;;;;;;11.93;2.92;;;14.70;99.90;;;;;;5019022;28;20040;-66
2022/09/19 08:19:40;;;;;;;21.02;3.70;;;14.80;99.90;;;;;;5017736;28;20057;-68
2022/09/19 08:22:05;;;;;;;14.38;2.78;;;15.00;99.90;;;;;;5016185;28;20509;-67
2022/09/19 08:24:37;;;;;;;14.70;3.17;;;15.10;99.90;;;;;;5011946;28;20018;-66
2022/09/19 08:27:08;;;;;;;5.68;2.00;;;15.30;99.90;;;;;;5008487;28;20018;-66
2022/09/19 08:29:37;;;;;;;15.40;3.17;;;15.10;99.90;;;;;;5010796;28;20478;-66
2022/09/19 08:32:08;;;;;;;23.90;2.83;;;14.70;99.90;;;;;;5015041;28;20030;-68
2022/09/19 08:34:35;;;;;;;15.55;2.67;;;14.90;99.90;;;;;;5001777;28;20038;-66
2022/09/19 08:37:01;;;;;;;21.67;3.65;;;14.80;99.90;;;;;;4989101;28;20039;-67
2022/09/19 08:39:31;;;;;;;10.55;1.70;;;14.60;99.90;;;;;;5009668;28;20049;-66
2022/09/19 08:42:26;;;;;;;14.88;2.15;;;14.30;99.90;;;;;;5008908;28;20041;-66
2022/09/19 08:45:02;;;;;;;7.25;1.67;;;14.70;99.90;;;;;;5005915;28;20386;-66
2022/09/19 08:47:32;;;;;;;10.77;2.35;;;14.80;99.90;;;;;;5015801;28;20501;-65
2022/09/19 08:50:10;;;;;;;11.88;2.38;;;15.10;99.90;;;;;;5028379;28;20018;-65
2022/09/19 08:52:46;;;;;;;8.05;1.80;;;15.40;99.90;;;;;;5002577;28;20033;-65
2022/09/19 08:55:28;;;;;;;12.82;2.30;;;15.10;99.90;;;;;;5027800;28;20041;-65
2022/09/19 08:57:58;;;;;;;6.03;1.60;;;15.30;99.90;;;;;;5029526;28;20397;-65
2022/09/19 09:00:30;;;;;;;9.77;1.40;;;15.00;99.90;;;;;;5026476;28;20087;-65
2022/09/19 09:03:05;;;;;;;11.63;1.70;;;14.90;99.90;;;;;;5028050;28;20033;-65
2022/09/19 09:06:02;;;;;;;11.23;1.73;;;14.90;99.90;;;;;;5028178;28;20405;-65
2022/09/19 09:08:42;;;;;;;10.95;1.30;;;15.40;99.90;;;;;;5012306;28;20030;-65
2022/09/19 09:12:00;;;;;;;16.38;2.40;;;15.60;99.90;;;;;;5014594;28;20033;-65
2022/09/19 09:15:03;;;;;;;16.48;2.25;;;15.70;99.90;;;;;;5026384;28;20067;-65
2022/09/19 09:17:51;;;;;;;9.68;1.92;;;16.20;99.90;;;;;;5022816;28;20033;-65
2022/09/19 09:20:45;;;;;;;11.43;2.13;;;16.70;99.90;;;;;;5030744;28;20497;-64
2022/09/19 09:23:15;;;;;;;10.43;1.83;;;16.60;99.90;;;;;;5021985;28;20030;-65
2022/09/19 09:26:13;;;;;;;16.15;2.22;;;16.30;99.90;;;;;;5012151;28;20073;-65
2022/09/19 09:29:12;;;;;;;13.48;2.03;;;17.10;99.90;;;;;;4998735;28;20034;-65
2022/09/19 09:32:17;;;;;;;12.75;2.22;;;16.90;99.90;;;;;;5013965;28;20041;-65
2022/09/19 09:34:56;;;;;;;10.90;2.00;;;17.10;99.90;;;;;;5001052;28;20026;-65
2022/09/19 09:37:47;;;;;;;16.45;2.22;;;17.70;99.90;;;;;;5011845;28;20047;-65
2022/09/19 09:43:11;;;;;;;20.95;3.10;;;17.90;99.90;;;;;;5005579;28;20025;-65
2022/09/19 09:45:51;;;;;;;20.13;1.77;;;18.50;99.90;;;;;;5017409;28;20033;-65
2022/09/19 09:48:32;;;;;;;12.27;1.83;;;18.40;99.90;;;;;;5024529;28;20529;-65
2022/09/19 09:51:48;;;;;;;9.10;1.83;;;18.20;99.90;;;;;;5027728;28;20588;-65
2022/09/19 09:57:50;;;;;;;11.88;2.22;;;17.10;99.90;;;;;;4953072;28;20034;-65
2022/09/19 10:03:42;;;;;;;13.93;2.25;;;16.40;99.90;;;;;;5015666;28;20120;-65
2022/09/19 10:06:42;;;;;;;8.07;2.00;;;16.50;99.90;;;;;;5025885;28;20128;-66
2022/09/19 10:09:20;;;;;;;11.43;1.75;;;16.80;99.90;;;;;;5026786;28;20048;-67
2022/09/19 10:11:56;;;;;;;16.27;1.98;;;16.90;99.90;;;;;;5027260;28;20032;-65
2022/09/19 10:14:28;;;;;;;11.68;1.65;;;17.20;99.90;;;;;;5026789;28;20120;-65
2022/09/19 10:17:06;;;;;;;10.50;2.38;;;17.40;99.90;;;;;;5029601;28;20393;-65
2022/09/19 10:19:45;;;;;;;6.88;1.88;;;17.40;99.90;;;;;;5031096;28;20091;-65
2022/09/19 10:22:16;;;;;;;11.60;1.83;;;17.20;99.90;;;;;;5030782;28;20119;-65
2022/09/19 10:24:59;;;;;;;11.10;1.77;;;17.20;99.90;;;;;;5005510;28;20037;-65
2022/09/19 10:27:32;;;;;;;9.40;1.60;;;17.00;99.90;;;;;;5031076;28;20392;-69
2022/09/19 10:30:27;;;;;;;10.05;2.08;;;16.90;99.90;;;;;;5030819;28;20041;-68
2022/09/19 10:32:57;;;;;;;17.23;2.00;;;16.80;99.90;;;;;;5030963;28;20034;-68
2022/09/19 10:35:38;;;;;;;12.18;2.15;;;16.90;99.90;;;;;;5030813;28;20060;-68
2022/09/19 10:38:13;;;;;;;8.25;1.70;;;17.00;99.90;;;;;;5030608;28;20040;-68
2022/09/19 10:40:57;;;;;;;6.22;1.48;;;17.10;99.90;;;;;;5031120;28;20490;-68
2022/09/19 10:43:45;;;;;;;12.07;2.08;;;17.40;99.90;;;;;;5030833;28;20094;-68
2022/09/19 10:46:20;;;;;;;8.15;1.30;;;17.50;99.90;;;;;;5031123;28;20030;-68
2022/09/19 10:48:57;;;;;;;9.70;1.35;;;17.20;99.90;;;;;;5031505;28;20022;-67
2022/09/19 10:51:43;;;;;;;6.72;1.50;;;17.70;99.80;;;;;;5034694;28;20083;-68
2022/09/19 10:54:11;;;;;;;9.25;1.73;;;17.60;98.70;;;;;;5034543;28;20025;-68
2022/09/19 10:56:40;;;;;;;8.77;1.77;;;17.60;99.90;;;;;;5036070;28;20025;-68
2022/09/19 10:59:23;;;;;;;8.88;1.80;;;18.00;99.90;;;;;;5034312;28;20067;-67
2022/09/19 11:02:08;;;;;;;6.83;1.80;;;18.50;99.90;;;;;;5034398;28;20079;-68
2022/09/19 11:04:35;;;;;;;12.77;1.70;;;19.00;99.90;;;;;;5036400;28;20037;-68
2022/09/19 11:07:17;;;;;;;10.07;1.40;;;18.90;99.90;;;;;;5034357;28;20030;-68
2022/09/19 11:09:45;;;;;;;12.55;1.80;;;18.50;99.90;;;;;;5034388;28;20055;-68
2022/09/19 11:12:15;;;;;;;15.45;2.00;;;18.30;99.90;;;;;;5034421;28;20432;-67
2022/09/19 11:14:48;;;;;;;8.30;2.67;;;17.90;99.90;;;;;;5034248;28;20017;-68
2022/09/19 11:17:46;;;;;;;11.93;1.98;;;18.60;99.90;;;;;;5034173;28;20032;-67
2022/09/19 11:21:05;;;;;;;9.80;2.00;;;18.80;99.90;;;;;;5018772;28;20033;-68
2022/09/19 11:23:52;;;;;;;19.33;2.08;;;18.30;99.90;;;;;;4958281;28;20035;-68
2022/09/19 11:26:55;;;;;;;11.77;2.00;;;17.80;99.90;;;;;;4958549;28;20069;-68
2022/09/19 11:29:30;;;;;;;8.23;1.65;;;17.80;99.90;;;;;;5025954;28;20045;-68
2022/09/19 11:32:09;;;;;;;13.55;2.20;;;17.90;99.90;;;;;;5034109;28;20116;-68
2022/09/19 11:35:02;;;;;;;10.93;1.77;;;17.80;99.90;;;;;;5033661;28;20128;-68
2022/09/19 11:37:46;;;;;;;9.88;2.03;;;17.80;99.90;;;;;;4994241;28;20512;-68
2022/09/19 11:40:22;;;;;;;17.90;1.85;;;18.40;99.90;;;;;;5033847;28;20076;-68
2022/09/19 11:42:49;;;;;;;10.75;2.53;;;19.00;99.90;;;;;;5017789;28;20030;-68
2022/09/19 11:45:19;;;;;;;11.98;2.33;;;19.40;99.90;;;;;;5035037;28;20432;-69
2022/09/19 11:48:05;;;;;;;9.27;2.05;;;19.40;99.90;;;;;;5033838;28;20022;-68
2022/09/19 11:50:59;;;;;;;7.68;1.33;;;18.60;99.90;;;;;;5033347;28;20032;-68
2022/09/19 11:53:35;;;;;;;9.60;1.73;;;17.70;99.90;;;;;;5033582;28;20036;-68
2022/09/19 11:56:59;;;;;;;6.10;1.58;;;17.70;99.90;;;;;;5028403;28;20120;-68
2022/09/19 11:59:49;;;;;;;6.03;1.27;;;18.80;98.30;;;;;;5033583;28;20037;-68
2022/09/19 12:02:53;;;;;;;9.45;1.42;;;20.70;99.00;;;;;;5032404;28;20083;-69
2022/09/19 12:05:49;;;;;;;10.70;1.63;;;20.90;95.10;;;;;;5026185;28;20064;-68
2022/09/19 12:08:45;;;;;;;5.13;1.10;;;19.30;96.40;;;;;;5017184;28;20034;-68
2022/09/19 12:11:20;;;;;;;8.60;1.45;;;18.20;97.80;;;;;;5022660;28;20029;-68
2022/09/19 12:13:54;;;;;;;10.25;2.45;;;17.90;99.10;;;;;;5026873;28;20509;-68
2022/09/19 12:16:31;;;;;;;9.05;1.70;;;17.80;98.90;;;;;;5016063;28;20036;-68
2022/09/19 12:19:33;;;;;;;7.88;1.52;;;18.00;99.90;;;;;;5008315;28;20042;-68
2022/09/19 12:22:06;;;;;;;10.30;1.67;;;18.70;99.90;;;;;;5033087;28;20474;-68
2022/09/19 12:24:52;;;;;;;7.32;1.63;;;19.20;97.20;;;;;;5032910;28;20553;-68
2022/09/19 12:27:32;;;;;;;12.85;1.67;;;18.90;98.10;;;;;;5032933;28;20497;-68
2022/09/19 12:30:05;;;;;;;11.13;1.90;;;18.60;99.70;;;;;;5032945;28;20033;-68
2022/09/19 12:32:56;;;;;;;9.35;1.85;;;18.20;99.90;;;;;;5032675;28;20034;-67
2022/09/19 12:35:35;;;;;;;15.07;1.83;;;17.80;99.90;;;;;;5032747;28;20030;-68
2022/09/19 12:38:17;;;;;;;8.88;1.98;;;17.70;99.90;;;;;;5032827;28;20033;-68
2022/09/19 12:40:53;;;;;;;15.82;2.58;;;18.00;99.90;;;;;;5032912;28;20060;-68
2022/09/19 12:43:32;;;;;;;11.68;2.42;;;18.10;99.90;;;;;;5033716;28;20025;-68
2022/09/19 12:46:14;;;;;;;10.60;2.08;;;19.50;99.90;;;;;;5033054;28;20083;-68
2022/09/19 12:48:54;;;;;;;16.98;2.20;;;20.90;98.80;;;;;;5032239;28;20040;-69
2022/09/19 12:52:18;;;;;;;8.98;2.33;;;21.80;98.00;;;;;;5033262;28;20102;-69
2022/09/19 12:55:07;;;;;;;7.40;1.65;;;22.60;95.50;;;;;;5024293;28;20049;-69
2022/09/19 12:57:51;;;;;;;10.77;2.35;;;23.00;95.00;;;;;;5032289;28;20060;-69
2022/09/19 13:00:18;;;;;;;10.82;1.77;;;24.00;93.70;;;;;;5033607;28;20061;-68
2022/09/19 13:02:54;;;;;;;6.88;1.52;;;23.30;93.70;;;;;;5033556;28;20044;-69
2022/09/19 13:05:30;;;;;;;18.45;2.00;;;22.40;94.10;;;;;;5033845;28;20033;-68
2022/09/19 13:08:12;;;;;;;8.32;1.52;;;20.80;95.60;;;;;;5033631;28;20158;-68
2022/09/19 13:11:02;;;;;;;11.52;2.22;;;20.40;97.10;;;;;;5033306;28;20039;-69
2022/09/19 13:13:28;;;;;;;6.22;1.35;;;21.70;95.80;;;;;;5008137;28;20400;-68
2022/09/19 13:16:06;;;;;;;9.43;1.52;;;22.30;94.10;;;;;;5032158;28;20079;-69
2022/09/19 13:24:12;;;;;;;5.68;1.88;;;23.90;92.30;;;;;;5033141;28;20055;-69
2022/09/19 13:26:38;;;;;;;5.50;1.45;;;23.60;91.60;;;;;;5033436;28;20017;-69
2022/09/19 13:29:29;;;;;;;8.57;1.98;;;23.20;91.70;;;;;;5032973;28;20033;-69
2022/09/19 13:31:59;;;;;;;9.93;1.60;;;23.30;91.90;;;;;;5033001;28;20057;-68
2022/09/19 13:34:42;;;;;;;7.93;1.50;;;22.70;91.90;;;;;;5031586;28;20108;-69
2022/09/19 13:37:26;;;;;;;6.53;1.80;;;21.70;93.10;;;;;;5033572;28;20042;-69
2022/09/19 13:40:05;;;;;;;6.85;1.48;;;22.00;93.60;;;;;;5032859;28;20043;-68
2022/09/19 13:42:46;;;;;;;12.63;1.67;;;23.00;93.10;;;;;;5033072;28;20031;-68
2022/09/19 13:45:24;;;;;;;6.13;1.98;;;23.70;92.70;;;;;;5032287;28;20025;-68